sensor_id;sensor_type;location;lat;lon;timestamp;pressure;altitude;pressure_sealevel;temperature;humidity
72110;BME280;59983;52.010;5.420;2023-04-20T00:02:16;102400.63;;;9.59;41.23
72110;BME280;59983;52.010;5.420;2023-04-20T00:04:43;102397.91;;;9.59;41.44
72110;BME280;59983;52.010;5.420;2023-04-20T00:07:10;102393.47;;;9.50;41.66
72110;BME280;59983;52.010;5.420;2023-04-20T00:09:37;102377.22;;;9.50;41.01
72110;BME280;59983;52.010;5.420;2023-04-20T00:12:03;102384.44;;;9.41;41.79
72110;BME280;59983;52.010;5.420;2023-04-20T00:14:30;102384.38;;;9.46;41.75
72110;BME280;59983;52.010;5.420;2023-04-20T00:16:56;102373.81;;;9.44;41.60
72110;BME280;59983;52.010;5.420;2023-04-20T00:19:23;102376.31;;;9.41;42.29
72110;BME280;59983;52.010;5.420;2023-04-20T00:21:51;102365.78;;;9.39;42.85
72110;BME280;59983;52.010;5.420;2023-04-20T00:24:18;102360.88;;;9.41;42.21
72110;BME280;59983;52.010;5.420;2023-04-20T00:26:44;102355.47;;;9.41;42.43
72110;BME280;59983;52.010;5.420;2023-04-20T00:29:11;102355.53;;;9.36;42.13
72110;BME280;59983;52.010;5.420;2023-04-20T00:31:37;102349.84;;;9.38;42.24
72110;BME280;59983;52.010;5.420;2023-04-20T00:34:04;102338.41;;;9.41;42.18
72110;BME280;59983;52.010;5.420;2023-04-20T00:36:30;102334.47;;;9.33;42.31
72110;BME280;59983;52.010;5.420;2023-04-20T00:38:57;102334.19;;;9.34;41.97
72110;BME280;59983;52.010;5.420;2023-04-20T00:41:24;102332.06;;;9.31;42.82
72110;BME280;59983;52.010;5.420;2023-04-20T00:43:51;102326.75;;;9.26;42.62
72110;BME280;59983;52.010;5.420;2023-04-20T00:46:20;102324.34;;;9.25;42.25
72110;BME280;59983;52.010;5.420;2023-04-20T00:48:49;102314.13;;;9.22;42.70
72110;BME280;59983;52.010;5.420;2023-04-20T00:51:17;102309.00;;;9.20;42.81
72110;BME280;59983;52.010;5.420;2023-04-20T00:53:44;102300.97;;;9.15;42.79
72110;BME280;59983;52.010;5.420;2023-04-20T00:56:12;102303.19;;;9.13;42.71
72110;BME280;59983;52.010;5.420;2023-04-20T00:58:42;102299.19;;;9.11;43.11
72110;BME280;59983;52.010;5.420;2023-04-20T01:01:10;102292.34;;;9.13;42.85
72110;BME280;59983;52.010;5.420;2023-04-20T01:03:38;102291.63;;;9.07;43.33
72110;BME280;59983;52.010;5.420;2023-04-20T01:06:05;102284.31;;;8.94;43.51
72110;BME280;59983;52.010;5.420;2023-04-20T01:08:32;102279.47;;;8.91;43.94
72110;BME280;59983;52.010;5.420;2023-04-20T01:10:59;102279.47;;;8.91;44.35
72110;BME280;59983;52.010;5.420;2023-04-20T01:13:25;102272.16;;;8.92;43.92
72110;BME280;59983;52.010;5.420;2023-04-20T01:15:52;102273.56;;;8.89;44.30
72110;BME280;59983;52.010;5.420;2023-04-20T01:18:19;102267.56;;;8.92;44.74
72110;BME280;59983;52.010;5.420;2023-04-20T01:20:45;102268.06;;;8.94;44.66
72110;BME280;59983;52.010;5.420;2023-04-20T01:23:13;102258.63;;;8.92;44.91
72110;BME280;59983;52.010;5.420;2023-04-20T01:25:40;102263.16;;;8.96;45.71
72110;BME280;59983;52.010;5.420;2023-04-20T01:28:07;102251.34;;;8.92;45.65
72110;BME280;59983;52.010;5.420;2023-04-20T01:30:35;102250.63;;;8.87;46.14
72110;BME280;59983;52.010;5.420;2023-04-20T01:33:03;102253.75;;;8.94;46.48
72110;BME280;59983;52.010;5.420;2023-04-20T01:35:29;102235.91;;;8.93;46.45
72110;BME280;59983;52.010;5.420;2023-04-20T01:37:56;102225.16;;;8.88;47.14
72110;BME280;59983;52.010;5.420;2023-04-20T01:40:23;102233.47;;;8.77;47.15
72110;BME280;59983;52.010;5.420;2023-04-20T01:42:49;102220.03;;;8.72;48.10
72110;BME280;59983;52.010;5.420;2023-04-20T01:45:16;102225.94;;;8.74;48.22
72110;BME280;59983;52.010;5.420;2023-04-20T01:47:42;102219.22;;;8.72;49.01
72110;BME280;59983;52.010;5.420;2023-04-20T01:50:09;102219.53;;;8.70;49.05
72110;BME280;59983;52.010;5.420;2023-04-20T01:52:35;102208.78;;;8.65;48.87
72110;BME280;59983;52.010;5.420;2023-04-20T01:55:02;102208.72;;;8.70;49.71
72110;BME280;59983;52.010;5.420;2023-04-20T01:57:29;102208.22;;;8.68;49.82
72110;BME280;59983;52.010;5.420;2023-04-20T01:59:55;102210.41;;;8.66;50.52
72110;BME280;59983;52.010;5.420;2023-04-20T02:02:22;102206.69;;;8.62;50.77
72110;BME280;59983;52.010;5.420;2023-04-20T02:04:48;102203.59;;;8.69;50.53
72110;BME280;59983;52.010;5.420;2023-04-20T02:07:15;102203.38;;;8.65;51.16
72110;BME280;59983;52.010;5.420;2023-04-20T02:09:42;102203.38;;;8.65;51.47
72110;BME280;59983;52.010;5.420;2023-04-20T02:12:08;102190.56;;;8.71;51.81
72110;BME280;59983;52.010;5.420;2023-04-20T02:14:35;102196.59;;;8.68;52.30
72110;BME280;59983;52.010;5.420;2023-04-20T02:17:01;102191.47;;;8.80;52.09
72110;BME280;59983;52.010;5.420;2023-04-20T02:19:28;102186.38;;;8.78;51.75
72110;BME280;59983;52.010;5.420;2023-04-20T02:21:55;102181.34;;;8.72;53.06
72110;BME280;59983;52.010;5.420;2023-04-20T02:24:21;102170.84;;;8.84;52.90
72110;BME280;59983;52.010;5.420;2023-04-20T02:26:48;102172.47;;;8.85;52.69
72110;BME280;59983;52.010;5.420;2023-04-20T02:29:15;102169.94;;;8.89;52.59
72110;BME280;59983;52.010;5.420;2023-04-20T02:31:42;102169.44;;;8.87;53.16
72110;BME280;59983;52.010;5.420;2023-04-20T02:34:08;102161.22;;;8.92;53.32
72110;BME280;59983;52.010;5.420;2023-04-20T02:36:36;102152.03;;;8.93;53.40
72110;BME280;59983;52.010;5.420;2023-04-20T02:39:02;102157.44;;;8.93;53.22
72110;BME280;59983;52.010;5.420;2023-04-20T02:41:29;102150.19;;;8.88;53.85
72110;BME280;59983;52.010;5.420;2023-04-20T02:43:56;102153.09;;;8.92;53.53
72110;BME280;59983;52.010;5.420;2023-04-20T02:46:22;102153.09;;;8.92;54.03
72110;BME280;59983;52.010;5.420;2023-04-20T02:48:49;102153.94;;;8.92;54.32
72110;BME280;59983;52.010;5.420;2023-04-20T02:51:15;102151.41;;;8.96;53.80
72110;BME280;59983;52.010;5.420;2023-04-20T02:53:42;102145.28;;;9.04;54.42
72110;BME280;59983;52.010;5.420;2023-04-20T02:56:08;102152.50;;;9.08;54.23
72110;BME280;59983;52.010;5.420;2023-04-20T02:58:35;102140.88;;;9.08;55.01
72110;BME280;59983;52.010;5.420;2023-04-20T03:01:02;102146.28;;;9.08;54.75
72110;BME280;59983;52.010;5.420;2023-04-20T03:03:29;102144.16;;;9.19;55.32
72110;BME280;59983;52.010;5.420;2023-04-20T03:05:56;102145.78;;;9.20;54.71
72110;BME280;59983;52.010;5.420;2023-04-20T03:08:23;102129.00;;;9.18;55.22
72110;BME280;59983;52.010;5.420;2023-04-20T03:10:49;102135.13;;;9.23;55.47
72110;BME280;59983;52.010;5.420;2023-04-20T03:13:16;102128.50;;;9.29;55.43
72110;BME280;59983;52.010;5.420;2023-04-20T03:15:42;102130.59;;;9.32;55.14
72110;BME280;59983;52.010;5.420;2023-04-20T03:18:09;102123.91;;;9.30;55.13
72110;BME280;59983;52.010;5.420;2023-04-20T03:20:36;102120.88;;;9.31;55.57
72110;BME280;59983;52.010;5.420;2023-04-20T03:23:02;102119.66;;;9.38;55.99
72110;BME280;59983;52.010;5.420;2023-04-20T03:25:29;102125.25;;;9.41;55.76
72110;BME280;59983;52.010;5.420;2023-04-20T03:27:55;102118.56;;;9.39;55.98
72110;BME280;59983;52.010;5.420;2023-04-20T03:30:22;102110.44;;;9.39;56.08
72110;BME280;59983;52.010;5.420;2023-04-20T03:32:48;102111.25;;;9.39;56.16
72110;BME280;59983;52.010;5.420;2023-04-20T03:35:15;102118.13;;;9.45;56.37
72110;BME280;59983;52.010;5.420;2023-04-20T03:37:42;102105.41;;;9.46;55.96
72110;BME280;59983;52.010;5.420;2023-04-20T03:40:09;102102.69;;;9.46;56.29
72110;BME280;59983;52.010;5.420;2023-04-20T03:42:36;102100.66;;;9.51;56.66
72110;BME280;59983;52.010;5.420;2023-04-20T03:45:04;102090.50;;;9.57;57.10
72110;BME280;59983;52.010;5.420;2023-04-20T03:47:31;102083.88;;;9.63;56.43
72110;BME280;59983;52.010;5.420;2023-04-20T03:49:58;102091.81;;;9.59;56.38
72110;BME280;59983;52.010;5.420;2023-04-20T03:52:25;102097.91;;;9.65;56.02
72110;BME280;59983;52.010;5.420;2023-04-20T03:54:51;102085.59;;;9.59;55.90
72110;BME280;59983;52.010;5.420;2023-04-20T03:57:18;102080.97;;;9.59;55.96
72110;BME280;59983;52.010;5.420;2023-04-20T03:59:44;102082.75;;;9.64;55.95
72110;BME280;59983;52.010;5.420;2023-04-20T04:02:11;102078.31;;;9.68;56.07
72110;BME280;59983;52.010;5.420;2023-04-20T04:04:39;102083.34;;;9.61;56.43
72110;BME280;59983;52.010;5.420;2023-04-20T04:07:06;102077.84;;;9.66;55.98
72110;BME280;59983;52.010;5.420;2023-04-20T04:09:33;102065.47;;;9.74;56.66
72110;BME280;59983;52.010;5.420;2023-04-20T04:11:59;102073.91;;;9.72;56.41
72110;BME280;59983;52.010;5.420;2023-04-20T04:14:27;102069.28;;;9.73;56.38
72110;BME280;59983;52.010;5.420;2023-04-20T04:16:54;102066.44;;;9.78;56.35
72110;BME280;59983;52.010;5.420;2023-04-20T04:19:21;102057.19;;;9.79;56.57
72110;BME280;59983;52.010;5.420;2023-04-20T04:21:47;102059.91;;;9.79;56.05
72110;BME280;59983;52.010;5.420;2023-04-20T04:24:14;102055.41;;;9.74;55.89
72110;BME280;59983;52.010;5.420;2023-04-20T04:26:42;102049.22;;;9.74;56.38
72110;BME280;59983;52.010;5.420;2023-04-20T04:29:08;102045.81;;;9.68;56.70
72110;BME280;59983;52.010;5.420;2023-04-20T04:31:35;102048.09;;;9.75;56.99
72110;BME280;59983;52.010;5.420;2023-04-20T04:34:02;102036.13;;;9.76;56.17
72110;BME280;59983;52.010;5.420;2023-04-20T04:36:29;102032.63;;;9.75;56.68
72110;BME280;59983;52.010;5.420;2023-04-20T04:38:55;102017.84;;;9.81;56.81
72110;BME280;59983;52.010;5.420;2023-04-20T04:41:22;102014.34;;;9.81;56.91
72110;BME280;59983;52.010;5.420;2023-04-20T04:43:48;102022.16;;;9.82;56.60
72110;BME280;59983;52.010;5.420;2023-04-20T04:46:15;102017.34;;;9.79;57.19
72110;BME280;59983;52.010;5.420;2023-04-20T04:48:41;102021.16;;;9.78;56.81
72110;BME280;59983;52.010;5.420;2023-04-20T04:51:08;102016.22;;;9.80;56.71
72110;BME280;59983;52.010;5.420;2023-04-20T04:53:35;102010.00;;;9.80;57.42
72110;BME280;59983;52.010;5.420;2023-04-20T04:56:03;102012.25;;;9.78;57.35
72110;BME280;59983;52.010;5.420;2023-04-20T04:58:29;102020.25;;;9.83;57.85
72110;BME280;59983;52.010;5.420;2023-04-20T05:00:56;102014.63;;;9.79;57.72
72110;BME280;59983;52.010;5.420;2023-04-20T05:03:23;102016.91;;;9.86;57.49
72110;BME280;59983;52.010;5.420;2023-04-20T05:05:49;102017.06;;;9.81;57.78
72110;BME280;59983;52.010;5.420;2023-04-20T05:08:16;102018.34;;;9.83;57.64
72110;BME280;59983;52.010;5.420;2023-04-20T05:10:42;102010.81;;;9.80;58.20
72110;BME280;59983;52.010;5.420;2023-04-20T05:13:09;102015.94;;;9.82;58.36
72110;BME280;59983;52.010;5.420;2023-04-20T05:15:35;102011.50;;;9.86;58.95
72110;BME280;59983;52.010;5.420;2023-04-20T05:18:02;102006.53;;;9.88;59.49
72110;BME280;59983;52.010;5.420;2023-04-20T05:20:28;102013.72;;;9.84;58.80
72110;BME280;59983;52.010;5.420;2023-04-20T05:22:55;102016.09;;;9.85;59.58
72110;BME280;59983;52.010;5.420;2023-04-20T05:25:22;102024.41;;;9.89;59.60
72110;BME280;59983;52.010;5.420;2023-04-20T05:27:48;102018.69;;;9.90;59.62
72110;BME280;59983;52.010;5.420;2023-04-20T05:30:15;102020.28;;;9.91;59.59
72110;BME280;59983;52.010;5.420;2023-04-20T05:32:47;102016.78;;;9.91;59.21
72110;BME280;59983;52.010;5.420;2023-04-20T05:35:17;102012.31;;;9.95;59.48
72110;BME280;59983;52.010;5.420;2023-04-20T05:37:44;102005.00;;;9.96;59.34
72110;BME280;59983;52.010;5.420;2023-04-20T05:40:10;101997.63;;;9.87;59.55
72110;BME280;59983;52.010;5.420;2023-04-20T05:42:37;102002.25;;;9.87;59.56
72110;BME280;59983;52.010;5.420;2023-04-20T05:45:04;102007.66;;;9.87;59.48
72110;BME280;59983;52.010;5.420;2023-04-20T05:47:31;102016.94;;;9.94;59.42
72110;BME280;59983;52.010;5.420;2023-04-20T05:49:57;102020.66;;;9.99;59.38
72110;BME280;59983;52.010;5.420;2023-04-20T05:52:24;102009.03;;;10.07;59.56
72110;BME280;59983;52.010;5.420;2023-04-20T05:54:51;102009.84;;;10.07;58.86
72110;BME280;59983;52.010;5.420;2023-04-20T05:57:18;102009.97;;;10.02;59.24
72110;BME280;59983;52.010;5.420;2023-04-20T05:59:44;102005.84;;;10.05;58.75
72110;BME280;59983;52.010;5.420;2023-04-20T06:02:11;102001.38;;;10.00;60.04
72110;BME280;59983;52.010;5.420;2023-04-20T06:04:38;102002.66;;;10.03;59.69
72110;BME280;59983;52.010;5.420;2023-04-20T06:07:05;101986.28;;;10.16;59.74
72110;BME280;59983;52.010;5.420;2023-04-20T06:09:31;101980.22;;;10.19;59.26
72110;BME280;59983;52.010;5.420;2023-04-20T06:11:58;101989.94;;;10.20;58.55
72110;BME280;59983;52.010;5.420;2023-04-20T06:14:26;101979.09;;;10.20;58.67
72110;BME280;59983;52.010;5.420;2023-04-20T06:16:52;101980.22;;;10.19;58.52
72110;BME280;59983;52.010;5.420;2023-04-20T06:19:18;101976.47;;;10.29;59.37
72110;BME280;59983;52.010;5.420;2023-04-20T06:21:45;101979.66;;;10.31;58.32
72110;BME280;59983;52.010;5.420;2023-04-20T06:24:12;101978.06;;;10.39;58.36
72110;BME280;59983;52.010;5.420;2023-04-20T06:26:38;101981.78;;;10.43;58.81
72110;BME280;59983;52.010;5.420;2023-04-20T06:29:05;101985.59;;;10.50;58.33
72110;BME280;59983;52.010;5.420;2023-04-20T06:31:31;101988.63;;;10.49;57.97
72110;BME280;59983;52.010;5.420;2023-04-20T06:33:58;101981.44;;;10.44;56.92
72110;BME280;59983;52.010;5.420;2023-04-20T06:36:24;101976.34;;;10.43;58.25
72110;BME280;59983;52.010;5.420;2023-04-20T06:38:52;101977.44;;;10.42;57.76
72110;BME280;59983;52.010;5.420;2023-04-20T06:41:20;101977.63;;;10.54;58.18
72110;BME280;59983;52.010;5.420;2023-04-20T06:43:46;101979.38;;;10.59;57.74
72110;BME280;59983;52.010;5.420;2023-04-20T06:46:13;101981.63;;;10.65;57.63
72110;BME280;59983;52.010;5.420;2023-04-20T06:48:39;101969.34;;;10.68;56.35
72110;BME280;59983;52.010;5.420;2023-04-20T06:51:06;101971.44;;;10.62;56.85
72110;BME280;59983;52.010;5.420;2023-04-20T06:53:33;101970.78;;;10.57;56.58
72110;BME280;59983;52.010;5.420;2023-04-20T06:56:00;101970.47;;;10.67;56.85
72110;BME280;59983;52.010;5.420;2023-04-20T06:58:26;101964.25;;;10.66;57.50
72110;BME280;59983;52.010;5.420;2023-04-20T07:00:53;101966.97;;;10.75;57.09
72110;BME280;59983;52.010;5.420;2023-04-20T07:03:19;101959.00;;;10.87;56.89
72110;BME280;59983;52.010;5.420;2023-04-20T07:05:46;101964.09;;;10.89;55.63
72110;BME280;59983;52.010;5.420;2023-04-20T07:08:13;101965.84;;;10.76;56.35
72110;BME280;59983;52.010;5.420;2023-04-20T07:10:41;101968.09;;;10.74;56.13
72110;BME280;59983;52.010;5.420;2023-04-20T07:13:08;101970.31;;;10.72;56.80
72110;BME280;59983;52.010;5.420;2023-04-20T07:15:34;101966.16;;;10.66;56.74
72110;BME280;59983;52.010;5.420;2023-04-20T07:18:01;101968.41;;;10.72;56.04
72110;BME280;59983;52.010;5.420;2023-04-20T07:20:28;101978.28;;;10.68;56.12
72110;BME280;59983;52.010;5.420;2023-04-20T07:22:54;101980.38;;;10.71;57.08
72110;BME280;59983;52.010;5.420;2023-04-20T07:25:21;101973.66;;;10.69;57.89
72110;BME280;59983;52.010;5.420;2023-04-20T07:27:48;101979.59;;;10.71;56.84
72110;BME280;59983;52.010;5.420;2023-04-20T07:30:14;101977.00;;;10.66;57.33
72110;BME280;59983;52.010;5.420;2023-04-20T07:32:41;101981.31;;;10.58;56.52
72110;BME280;59983;52.010;5.420;2023-04-20T07:35:08;101978.78;;;10.62;57.95
72110;BME280;59983;52.010;5.420;2023-04-20T07:37:35;101976.53;;;10.55;57.52
72110;BME280;59983;52.010;5.420;2023-04-20T07:40:02;101971.41;;;10.54;58.16
72110;BME280;59983;52.010;5.420;2023-04-20T07:42:32;101983.88;;;10.55;58.86
72110;BME280;59983;52.010;5.420;2023-04-20T07:45:00;101983.41;;;10.61;58.00
72110;BME280;59983;52.010;5.420;2023-04-20T07:47:26;101979.25;;;10.64;58.53
72110;BME280;59983;52.010;5.420;2023-04-20T07:49:53;101984.19;;;10.62;59.16
72110;BME280;59983;52.010;5.420;2023-04-20T07:52:20;101969.84;;;10.61;58.93
72110;BME280;59983;52.010;5.420;2023-04-20T07:54:46;101973.66;;;10.60;59.26
72110;BME280;59983;52.010;5.420;2023-04-20T07:57:13;101974.16;;;10.71;59.09
72110;BME280;59983;52.010;5.420;2023-04-20T07:59:40;101972.72;;;10.73;59.08
72110;BME280;59983;52.010;5.420;2023-04-20T08:02:07;101979.59;;;10.80;58.58
72110;BME280;59983;52.010;5.420;2023-04-20T08:04:37;101969.53;;;11.06;58.87
72110;BME280;59983;52.010;5.420;2023-04-20T08:07:04;101966.00;;;11.23;58.00
72110;BME280;59983;52.010;5.420;2023-04-20T08:09:31;101977.31;;;11.51;58.46
72110;BME280;59983;52.010;5.420;2023-04-20T08:11:57;101972.41;;;11.91;58.66
72110;BME280;59983;52.010;5.420;2023-04-20T08:14:24;101959.69;;;12.12;56.99
72110;BME280;59983;52.010;5.420;2023-04-20T08:16:50;101959.50;;;12.47;56.28
72110;BME280;59983;52.010;5.420;2023-04-20T08:19:17;101951.41;;;12.80;55.91
72110;BME280;59983;52.010;5.420;2023-04-20T08:21:43;101954.34;;;12.75;53.90
72110;BME280;59983;52.010;5.420;2023-04-20T08:24:10;101947.75;;;12.76;54.35
72110;BME280;59983;52.010;5.420;2023-04-20T08:26:38;101950.22;;;12.69;54.86
72110;BME280;59983;52.010;5.420;2023-04-20T08:29:05;101948.16;;;12.66;54.93
72110;BME280;59983;52.010;5.420;2023-04-20T08:31:31;101941.47;;;12.63;54.48
72110;BME280;59983;52.010;5.420;2023-04-20T08:33:58;101943.25;;;12.59;54.54
72110;BME280;59983;52.010;5.420;2023-04-20T08:36:24;101946.13;;;12.33;55.36
72110;BME280;59983;52.010;5.420;2023-04-20T08:39:09;101945.06;;;11.96;55.09
72110;BME280;59983;52.010;5.420;2023-04-20T08:41:36;101935.72;;;12.06;56.49
72110;BME280;59983;52.010;5.420;2023-04-20T08:44:03;101933.75;;;12.15;56.59
72110;BME280;59983;52.010;5.420;2023-04-20T08:46:32;101936.69;;;12.01;56.53
72110;BME280;59983;52.010;5.420;2023-04-20T08:48:59;101943.50;;;12.16;56.37
72110;BME280;59983;52.010;5.420;2023-04-20T08:51:27;101943.16;;;12.17;57.01
72110;BME280;59983;52.010;5.420;2023-04-20T08:53:55;101939.38;;;12.10;56.53
72110;BME280;59983;52.010;5.420;2023-04-20T08:56:42;101939.91;;;12.03;56.61
72110;BME280;59983;52.010;5.420;2023-04-20T08:59:09;101933.00;;;12.06;56.93
72110;BME280;59983;52.010;5.420;2023-04-20T09:01:41;101924.34;;;12.12;57.17
72110;BME280;59983;52.010;5.420;2023-04-20T09:04:19;101917.31;;;12.11;57.56
72110;BME280;59983;52.010;5.420;2023-04-20T09:06:49;101927.13;;;12.25;56.86
72110;BME280;59983;52.010;5.420;2023-04-20T09:09:17;101924.91;;;12.47;57.16
72110;BME280;59983;52.010;5.420;2023-04-20T09:11:44;101923.19;;;12.64;55.35
72110;BME280;59983;52.010;5.420;2023-04-20T09:14:13;101923.50;;;12.62;55.42
72110;BME280;59983;52.010;5.420;2023-04-20T09:16:51;101930.75;;;12.58;56.57
72110;BME280;59983;52.010;5.420;2023-04-20T09:19:25;101939.16;;;12.24;56.52
72110;BME280;59983;52.010;5.420;2023-04-20T09:21:54;101933.41;;;12.16;57.60
72110;BME280;59983;52.010;5.420;2023-04-20T09:24:22;101925.94;;;12.34;56.80
72110;BME280;59983;52.010;5.420;2023-04-20T09:26:48;101920.78;;;12.41;57.25
72110;BME280;59983;52.010;5.420;2023-04-20T09:29:17;101925.72;;;12.48;58.20
72110;BME280;59983;52.010;5.420;2023-04-20T09:31:44;101926.41;;;12.36;56.69
72110;BME280;59983;52.010;5.420;2023-04-20T09:34:11;101925.50;;;12.32;58.46
72110;BME280;59983;52.010;5.420;2023-04-20T09:36:42;101910.38;;;12.43;59.07
72110;BME280;59983;52.010;5.420;2023-04-20T09:39:19;101915.22;;;12.59;57.60
72110;BME280;59983;52.010;5.420;2023-04-20T09:41:49;101920.84;;;12.54;57.01
72110;BME280;59983;52.010;5.420;2023-04-20T09:44:16;101910.66;;;12.51;57.77
72110;BME280;59983;52.010;5.420;2023-04-20T09:46:44;101905.94;;;12.39;56.64
72110;BME280;59983;52.010;5.420;2023-04-20T09:49:12;101909.78;;;12.59;58.81
72110;BME280;59983;52.010;5.420;2023-04-20T09:51:41;101917.47;;;12.77;57.38
72110;BME280;59983;52.010;5.420;2023-04-20T09:54:10;101914.69;;;12.86;57.64
72110;BME280;59983;52.010;5.420;2023-04-20T09:56:38;101906.84;;;12.85;56.41
72110;BME280;59983;52.010;5.420;2023-04-20T09:59:06;101899.66;;;12.80;56.93
72110;BME280;59983;52.010;5.420;2023-04-20T10:01:33;101896.75;;;12.85;57.22
72110;BME280;59983;52.010;5.420;2023-04-20T10:04:05;101895.00;;;13.01;55.98
72110;BME280;59983;52.010;5.420;2023-04-20T10:06:33;101895.47;;;13.03;56.72
72110;BME280;59983;52.010;5.420;2023-04-20T10:09:03;101895.03;;;13.14;56.21
72110;BME280;59983;52.010;5.420;2023-04-20T10:14:22;101895.34;;;13.33;54.47
72110;BME280;59983;52.010;5.420;2023-04-20T10:19:40;101886.66;;;13.19;53.51
72110;BME280;59983;52.010;5.420;2023-04-20T10:22:09;101889.25;;;13.15;53.13
72110;BME280;59983;52.010;5.420;2023-04-20T10:24:36;101895.66;;;12.98;53.41
72110;BME280;59983;52.010;5.420;2023-04-20T10:27:18;101888.06;;;12.92;53.51
72110;BME280;59983;52.010;5.420;2023-04-20T10:29:45;101896.41;;;13.08;52.76
72110;BME280;59983;52.010;5.420;2023-04-20T10:32:26;101887.03;;;12.96;52.47
72110;BME280;59983;52.010;5.420;2023-04-20T10:35:04;101876.13;;;12.96;52.36
72110;BME280;59983;52.010;5.420;2023-04-20T10:37:32;101879.13;;;13.03;53.25
72110;BME280;59983;52.010;5.420;2023-04-20T10:39:59;101874.16;;;13.18;52.67
72110;BME280;59983;52.010;5.420;2023-04-20T10:42:26;101873.31;;;13.38;52.42
72110;BME280;59983;52.010;5.420;2023-04-20T10:44:54;101874.59;;;13.53;51.32
72110;BME280;59983;52.010;5.420;2023-04-20T10:47:29;101861.28;;;13.51;51.32
72110;BME280;59983;52.010;5.420;2023-04-20T10:50:13;101861.66;;;13.62;52.33
72110;BME280;59983;52.010;5.420;2023-04-20T10:52:41;101868.81;;;13.67;51.56
72110;BME280;59983;52.010;5.420;2023-04-20T10:55:23;101866.75;;;13.76;52.39
72110;BME280;59983;52.010;5.420;2023-04-20T10:57:50;101861.56;;;13.71;52.61
72110;BME280;59983;52.010;5.420;2023-04-20T11:00:19;101850.19;;;13.81;51.52
72110;BME280;59983;52.010;5.420;2023-04-20T11:02:50;101856.63;;;14.01;50.64
72110;BME280;59983;52.010;5.420;2023-04-20T11:05:18;101839.56;;;14.16;51.36
72110;BME280;59983;52.010;5.420;2023-04-20T11:07:49;101842.22;;;14.40;48.72
72110;BME280;59983;52.010;5.420;2023-04-20T11:10:16;101841.66;;;14.35;49.37
72110;BME280;59983;52.010;5.420;2023-04-20T11:12:42;101840.19;;;14.37;48.13
72110;BME280;59983;52.010;5.420;2023-04-20T11:15:09;101831.88;;;14.46;48.79
72110;BME280;59983;52.010;5.420;2023-04-20T11:17:37;101841.50;;;14.56;49.36
72110;BME280;59983;52.010;5.420;2023-04-20T11:22:42;101837.19;;;14.02;47.99
72110;BME280;59983;52.010;5.420;2023-04-20T11:25:10;101835.28;;;13.91;49.05
72110;BME280;59983;52.010;5.420;2023-04-20T11:27:37;101839.16;;;13.89;49.28
72110;BME280;59983;52.010;5.420;2023-04-20T11:30:05;101827.41;;;14.01;48.89
72110;BME280;59983;52.010;5.420;2023-04-20T11:32:34;101832.44;;;13.99;48.79
72110;BME280;59983;52.010;5.420;2023-04-20T11:35:04;101827.53;;;13.93;50.47
72110;BME280;59983;52.010;5.420;2023-04-20T11:37:44;101827.66;;;13.96;49.55
72110;BME280;59983;52.010;5.420;2023-04-20T11:40:12;101821.53;;;13.87;49.70
72110;BME280;59983;52.010;5.420;2023-04-20T11:42:40;101817.06;;;14.07;49.89
72110;BME280;59983;52.010;5.420;2023-04-20T11:45:07;101813.03;;;14.29;48.98
72110;BME280;59983;52.010;5.420;2023-04-20T11:47:33;101809.34;;;14.77;49.89
72110;BME280;59983;52.010;5.420;2023-04-20T11:50:00;101811.16;;;14.73;48.06
72110;BME280;59983;52.010;5.420;2023-04-20T11:52:26;101802.53;;;14.71;47.96
72110;BME280;59983;52.010;5.420;2023-04-20T11:54:53;101802.41;;;14.39;46.91
72110;BME280;59983;52.010;5.420;2023-04-20T11:57:19;101807.91;;;14.27;47.23
72110;BME280;59983;52.010;5.420;2023-04-20T11:59:48;101817.75;;;14.04;49.08
72110;BME280;59983;52.010;5.420;2023-04-20T12:02:15;101819.25;;;13.89;48.46
72110;BME280;59983;52.010;5.420;2023-04-20T12:04:42;101821.31;;;13.80;48.28
72110;BME280;59983;52.010;5.420;2023-04-20T12:07:09;101817.56;;;13.84;49.21
72110;BME280;59983;52.010;5.420;2023-04-20T12:09:36;101816.28;;;14.06;49.16
72110;BME280;59983;52.010;5.420;2023-04-20T12:12:04;101824.06;;;14.20;50.08
72110;BME280;59983;52.010;5.420;2023-04-20T12:14:31;101817.44;;;14.45;49.71
72110;BME280;59983;52.010;5.420;2023-04-20T12:17:01;101815.25;;;14.39;48.62
72110;BME280;59983;52.010;5.420;2023-04-20T12:19:29;101817.59;;;14.25;49.46
72110;BME280;59983;52.010;5.420;2023-04-20T12:21:56;101811.84;;;14.02;49.29
72110;BME280;59983;52.010;5.420;2023-04-20T12:24:23;101817.19;;;13.86;49.08
72110;BME280;59983;52.010;5.420;2023-04-20T12:26:49;101809.75;;;13.71;49.59
72110;BME280;59983;52.010;5.420;2023-04-20T12:29:16;101815.53;;;13.45;50.09
72110;BME280;59983;52.010;5.420;2023-04-20T12:31:43;101806.78;;;13.51;50.78
72110;BME280;59983;52.010;5.420;2023-04-20T12:34:09;101808.38;;;13.40;50.24
72110;BME280;59983;52.010;5.420;2023-04-20T12:36:36;101808.81;;;13.42;50.37
72110;BME280;59983;52.010;5.420;2023-04-20T12:39:03;101814.50;;;13.49;50.69
72110;BME280;59983;52.010;5.420;2023-04-20T12:41:29;101812.81;;;13.57;51.17
72110;BME280;59983;52.010;5.420;2023-04-20T12:43:56;101804.28;;;13.58;50.28
72110;BME280;59983;52.010;5.420;2023-04-20T12:46:23;101804.19;;;13.55;50.92
72110;BME280;59983;52.010;5.420;2023-04-20T12:48:50;101804.06;;;13.39;50.77
72110;BME280;59983;52.010;5.420;2023-04-20T12:51:17;101801.81;;;13.53;50.91
72110;BME280;59983;52.010;5.420;2023-04-20T12:53:44;101798.72;;;13.55;51.26
72110;BME280;59983;52.010;5.420;2023-04-20T12:56:10;101800.66;;;13.79;50.21
72110;BME280;59983;52.010;5.420;2023-04-20T12:58:37;101799.13;;;13.94;50.55
72110;BME280;59983;52.010;5.420;2023-04-20T13:01:03;101791.66;;;13.78;49.53
72110;BME280;59983;52.010;5.420;2023-04-20T13:03:30;101796.56;;;13.60;49.30
72110;BME280;59983;52.010;5.420;2023-04-20T13:05:58;101793.69;;;13.69;50.70